sensor_id;sensor_type;location;lat;lon;timestamp;P1;durP1;ratioP1;P2;durP2;ratioP2
18435;SDS011;9346;52.006;4.720;2024-02-28T00:02:01;8.23;;;5.57;;
18435;SDS011;9346;52.006;4.720;2024-02-28T00:04:27;8.50;;;6.00;;
18435;SDS011;9346;52.006;4.720;2024-02-28T00:06:54;8.47;;;6.10;;
18435;SDS011;9346;52.006;4.720;2024-02-28T00:09:21;6.67;;;5.20;;
18435;SDS011;9346;52.006;4.720;2024-02-28T00:11:47;9.43;;;5.87;;
18435;SDS011;9346;52.006;4.720;2024-02-28T00:14:14;6.90;;;4.63;;
18435;SDS011;9346;52.006;4.720;2024-02-28T00:16:42;9.60;;;5.17;;
18435;SDS011;9346;52.006;4.720;2024-02-28T00:19:09;7.63;;;5.53;;
18435;SDS011;9346;52.006;4.720;2024-02-28T00:21:37;9.90;;;5.70;;
18435;SDS011;9346;52.006;4.720;2024-02-28T00:24:04;8.33;;;6.13;;
18435;SDS011;9346;52.006;4.720;2024-02-28T00:26:31;9.77;;;5.37;;
18435;SDS011;9346;52.006;4.720;2024-02-28T00:28:58;8.37;;;4.97;;
18435;SDS011;9346;52.006;4.720;2024-02-28T00:31:25;8.50;;;5.30;;
18435;SDS011;9346;52.006;4.720;2024-02-28T00:33:53;8.03;;;5.47;;
18435;SDS011;9346;52.006;4.720;2024-02-28T00:36:20;7.50;;;5.10;;
18435;SDS011;9346;52.006;4.720;2024-02-28T00:38:47;8.67;;;4.87;;
18435;SDS011;9346;52.006;4.720;2024-02-28T00:41:13;11.50;;;5.03;;
18435;SDS011;9346;52.006;4.720;2024-02-28T00:43:40;8.57;;;4.57;;
18435;SDS011;9346;52.006;4.720;2024-02-28T00:46:07;9.70;;;4.60;;
18435;SDS011;9346;52.006;4.720;2024-02-28T00:48:37;8.77;;;5.40;;
18435;SDS011;9346;52.006;4.720;2024-02-28T00:51:05;13.30;;;5.07;;
18435;SDS011;9346;52.006;4.720;2024-02-28T00:53:33;6.50;;;4.80;;
18435;SDS011;9346;52.006;4.720;2024-02-28T00:55:59;7.97;;;4.47;;
18435;SDS011;9346;52.006;4.720;2024-02-28T00:58:26;9.27;;;4.93;;
18435;SDS011;9346;52.006;4.720;2024-02-28T01:00:55;5.70;;;4.50;;
18435;SDS011;9346;52.006;4.720;2024-02-28T01:03:22;8.70;;;5.90;;
18435;SDS011;9346;52.006;4.720;2024-02-28T01:05:49;6.63;;;5.00;;
18435;SDS011;9346;52.006;4.720;2024-02-28T01:08:17;7.83;;;4.37;;
18435;SDS011;9346;52.006;4.720;2024-02-28T01:10:44;9.10;;;4.53;;
18435;SDS011;9346;52.006;4.720;2024-02-28T01:13:11;6.67;;;4.80;;
18435;SDS011;9346;52.006;4.720;2024-02-28T01:15:39;8.13;;;5.03;;
18435;SDS011;9346;52.006;4.720;2024-02-28T01:18:06;12.80;;;4.87;;
18435;SDS011;9346;52.006;4.720;2024-02-28T01:20:33;10.83;;;5.37;;
18435;SDS011;9346;52.006;4.720;2024-02-28T01:22:59;13.63;;;5.83;;
18435;SDS011;9346;52.006;4.720;2024-02-28T01:25:27;7.67;;;4.73;;
18435;SDS011;9346;52.006;4.720;2024-02-28T01:27:55;6.53;;;4.17;;
18435;SDS011;9346;52.006;4.720;2024-02-28T01:30:23;6.57;;;5.00;;
18435;SDS011;9346;52.006;4.720;2024-02-28T01:32:49;6.00;;;5.07;;
18435;SDS011;9346;52.006;4.720;2024-02-28T01:35:16;8.13;;;5.00;;
18435;SDS011;9346;52.006;4.720;2024-02-28T01:37:42;8.07;;;5.67;;
18435;SDS011;9346;52.006;4.720;2024-02-28T01:40:10;10.53;;;5.57;;
18435;SDS011;9346;52.006;4.720;2024-02-28T01:42:39;8.20;;;4.97;;
18435;SDS011;9346;52.006;4.720;2024-02-28T01:45:06;7.53;;;4.60;;
18435;SDS011;9346;52.006;4.720;2024-02-28T01:47:34;14.17;;;5.03;;
18435;SDS011;9346;52.006;4.720;2024-02-28T01:50:00;7.27;;;4.90;;
18435;SDS011;9346;52.006;4.720;2024-02-28T01:52:27;8.40;;;4.93;;
18435;SDS011;9346;52.006;4.720;2024-02-28T01:54:55;8.97;;;5.83;;
18435;SDS011;9346;52.006;4.720;2024-02-28T01:57:22;8.67;;;5.00;;
18435;SDS011;9346;52.006;4.720;2024-02-28T01:59:51;7.13;;;5.00;;
18435;SDS011;9346;52.006;4.720;2024-02-28T02:02:19;6.97;;;4.40;;
18435;SDS011;9346;52.006;4.720;2024-02-28T02:04:46;8.43;;;5.40;;
18435;SDS011;9346;52.006;4.720;2024-02-28T02:07:12;9.30;;;5.40;;
18435;SDS011;9346;52.006;4.720;2024-02-28T02:09:39;10.77;;;5.23;;
18435;SDS011;9346;52.006;4.720;2024-02-28T02:12:06;9.00;;;5.10;;
18435;SDS011;9346;52.006;4.720;2024-02-28T02:14:33;8.07;;;4.73;;
18435;SDS011;9346;52.006;4.720;2024-02-28T02:17:02;11.93;;;5.17;;
18435;SDS011;9346;52.006;4.720;2024-02-28T02:19:28;8.00;;;5.07;;
18435;SDS011;9346;52.006;4.720;2024-02-28T02:21:58;12.10;;;5.63;;
18435;SDS011;9346;52.006;4.720;2024-02-28T02:24:26;10.47;;;4.83;;
18435;SDS011;9346;52.006;4.720;2024-02-28T02:26:54;9.13;;;4.70;;
18435;SDS011;9346;52.006;4.720;2024-02-28T02:29:21;12.23;;;5.97;;
18435;SDS011;9346;52.006;4.720;2024-02-28T02:31:48;10.23;;;5.57;;
18435;SDS011;9346;52.006;4.720;2024-02-28T02:34:15;7.47;;;5.63;;
18435;SDS011;9346;52.006;4.720;2024-02-28T02:36:41;7.90;;;5.33;;
18435;SDS011;9346;52.006;4.720;2024-02-28T02:39:08;7.87;;;5.07;;
18435;SDS011;9346;52.006;4.720;2024-02-28T02:41:37;10.67;;;5.00;;
18435;SDS011;9346;52.006;4.720;2024-02-28T02:44:04;10.40;;;6.03;;
18435;SDS011;9346;52.006;4.720;2024-02-28T02:46:31;12.87;;;6.23;;
18435;SDS011;9346;52.006;4.720;2024-02-28T02:48:57;12.30;;;6.63;;
18435;SDS011;9346;52.006;4.720;2024-02-28T02:51:24;12.63;;;7.07;;
18435;SDS011;9346;52.006;4.720;2024-02-28T02:53:51;11.20;;;5.67;;
18435;SDS011;9346;52.006;4.720;2024-02-28T02:56:18;10.07;;;6.30;;
18435;SDS011;9346;52.006;4.720;2024-02-28T02:58:47;12.70;;;6.03;;
18435;SDS011;9346;52.006;4.720;2024-02-28T03:01:14;9.17;;;5.90;;
18435;SDS011;9346;52.006;4.720;2024-02-28T03:03:40;13.27;;;6.87;;
18435;SDS011;9346;52.006;4.720;2024-02-28T03:06:07;10.73;;;6.73;;
18435;SDS011;9346;52.006;4.720;2024-02-28T03:08:35;9.67;;;6.37;;
18435;SDS011;9346;52.006;4.720;2024-02-28T03:11:01;18.70;;;7.07;;
18435;SDS011;9346;52.006;4.720;2024-02-28T03:13:29;12.17;;;6.97;;
18435;SDS011;9346;52.006;4.720;2024-02-28T03:15:57;14.03;;;6.70;;
18435;SDS011;9346;52.006;4.720;2024-02-28T03:18:24;15.57;;;7.00;;
18435;SDS011;9346;52.006;4.720;2024-02-28T03:20:50;12.63;;;7.13;;
18435;SDS011;9346;52.006;4.720;2024-02-28T03:23:17;15.10;;;7.57;;
18435;SDS011;9346;52.006;4.720;2024-02-28T03:25:44;12.90;;;7.33;;
18435;SDS011;9346;52.006;4.720;2024-02-28T03:28:11;12.93;;;7.37;;
18435;SDS011;9346;52.006;4.720;2024-02-28T03:30:38;13.57;;;8.37;;
18435;SDS011;9346;52.006;4.720;2024-02-28T03:33:06;16.00;;;8.60;;
18435;SDS011;9346;52.006;4.720;2024-02-28T03:35:33;16.60;;;7.50;;
18435;SDS011;9346;52.006;4.720;2024-02-28T03:38:00;17.03;;;8.47;;
18435;SDS011;9346;52.006;4.720;2024-02-28T03:40:26;16.87;;;9.10;;
18435;SDS011;9346;52.006;4.720;2024-02-28T03:42:53;14.63;;;7.37;;
18435;SDS011;9346;52.006;4.720;2024-02-28T03:45:20;17.37;;;8.83;;
18435;SDS011;9346;52.006;4.720;2024-02-28T03:47:47;12.77;;;7.60;;
18435;SDS011;9346;52.006;4.720;2024-02-28T03:50:15;16.63;;;7.67;;
18435;SDS011;9346;52.006;4.720;2024-02-28T03:52:42;21.63;;;9.67;;
18435;SDS011;9346;52.006;4.720;2024-02-28T03:55:09;14.77;;;7.70;;
18435;SDS011;9346;52.006;4.720;2024-02-28T03:57:35;16.07;;;8.73;;
18435;SDS011;9346;52.006;4.720;2024-02-28T04:00:02;21.83;;;8.90;;
18435;SDS011;9346;52.006;4.720;2024-02-28T04:02:30;13.63;;;7.40;;
18435;SDS011;9346;52.006;4.720;2024-02-28T04:04:57;16.10;;;9.40;;
18435;SDS011;9346;52.006;4.720;2024-02-28T04:07:26;15.63;;;8.43;;
18435;SDS011;9346;52.006;4.720;2024-02-28T04:09:52;18.17;;;8.43;;
18435;SDS011;9346;52.006;4.720;2024-02-28T04:12:19;16.33;;;9.53;;
18435;SDS011;9346;52.006;4.720;2024-02-28T04:14:46;19.50;;;8.70;;
18435;SDS011;9346;52.006;4.720;2024-02-28T04:17:13;16.97;;;9.30;;
18435;SDS011;9346;52.006;4.720;2024-02-28T04:19:39;19.60;;;9.40;;
18435;SDS011;9346;52.006;4.720;2024-02-28T04:22:06;18.53;;;9.73;;
18435;SDS011;9346;52.006;4.720;2024-02-28T04:24:35;16.20;;;8.77;;
18435;SDS011;9346;52.006;4.720;2024-02-28T04:27:00;22.37;;;10.33;;
18435;SDS011;9346;52.006;4.720;2024-02-28T04:29:29;15.90;;;8.43;;
18435;SDS011;9346;52.006;4.720;2024-02-28T04:31:56;19.67;;;9.47;;
18435;SDS011;9346;52.006;4.720;2024-02-28T04:34:23;18.53;;;9.97;;
18435;SDS011;9346;52.006;4.720;2024-02-28T04:36:50;16.07;;;9.13;;
18435;SDS011;9346;52.006;4.720;2024-02-28T04:39:16;16.13;;;8.53;;
18435;SDS011;9346;52.006;4.720;2024-02-28T04:41:45;21.53;;;9.33;;
18435;SDS011;9346;52.006;4.720;2024-02-28T04:44:11;19.30;;;9.37;;
18435;SDS011;9346;52.006;4.720;2024-02-28T04:46:38;17.40;;;9.73;;
18435;SDS011;9346;52.006;4.720;2024-02-28T04:49:05;19.13;;;10.13;;
18435;SDS011;9346;52.006;4.720;2024-02-28T04:51:33;18.83;;;10.83;;
18435;SDS011;9346;52.006;4.720;2024-02-28T04:54:00;18.90;;;10.83;;
18435;SDS011;9346;52.006;4.720;2024-02-28T04:56:26;25.00;;;11.60;;
18435;SDS011;9346;52.006;4.720;2024-02-28T04:58:55;19.37;;;9.67;;
18435;SDS011;9346;52.006;4.720;2024-02-28T05:01:21;20.33;;;10.83;;
18435;SDS011;9346;52.006;4.720;2024-02-28T05:03:48;24.87;;;11.50;;
18435;SDS011;9346;52.006;4.720;2024-02-28T05:06:15;18.53;;;10.17;;
18435;SDS011;9346;52.006;4.720;2024-02-28T05:08:42;20.67;;;9.70;;
18435;SDS011;9346;52.006;4.720;2024-02-28T05:11:08;22.93;;;11.07;;
18435;SDS011;9346;52.006;4.720;2024-02-28T05:13:35;19.57;;;11.27;;
18435;SDS011;9346;52.006;4.720;2024-02-28T05:16:03;17.27;;;10.20;;
18435;SDS011;9346;52.006;4.720;2024-02-28T05:18:30;20.83;;;12.63;;
18435;SDS011;9346;52.006;4.720;2024-02-28T05:20:56;29.10;;;11.37;;
18435;SDS011;9346;52.006;4.720;2024-02-28T05:23:23;23.50;;;12.73;;
18435;SDS011;9346;52.006;4.720;2024-02-28T05:25:50;24.83;;;12.33;;
18435;SDS011;9346;52.006;4.720;2024-02-28T05:28:16;23.83;;;13.70;;
18435;SDS011;9346;52.006;4.720;2024-02-28T05:30:42;31.17;;;12.47;;
18435;SDS011;9346;52.006;4.720;2024-02-28T05:33:11;23.93;;;13.80;;
18435;SDS011;9346;52.006;4.720;2024-02-28T05:35:38;27.90;;;13.43;;
18435;SDS011;9346;52.006;4.720;2024-02-28T05:38:04;23.67;;;14.63;;
18435;SDS011;9346;52.006;4.720;2024-02-28T05:40:31;23.30;;;13.00;;
18435;SDS011;9346;52.006;4.720;2024-02-28T05:42:58;28.10;;;13.57;;
18435;SDS011;9346;52.006;4.720;2024-02-28T05:45:24;26.20;;;14.30;;
18435;SDS011;9346;52.006;4.720;2024-02-28T05:47:51;23.33;;;13.60;;
18435;SDS011;9346;52.006;4.720;2024-02-28T05:50:19;27.10;;;14.10;;
18435;SDS011;9346;52.006;4.720;2024-02-28T05:52:46;22.07;;;12.93;;
18435;SDS011;9346;52.006;4.720;2024-02-28T05:55:13;22.10;;;14.33;;
18435;SDS011;9346;52.006;4.720;2024-02-28T05:57:40;24.77;;;13.20;;
18435;SDS011;9346;52.006;4.720;2024-02-28T06:00:07;22.30;;;13.07;;
18435;SDS011;9346;52.006;4.720;2024-02-28T06:02:35;25.63;;;12.93;;
18435;SDS011;9346;52.006;4.720;2024-02-28T06:05:02;28.20;;;14.07;;
18435;SDS011;9346;52.006;4.720;2024-02-28T06:07:31;30.80;;;14.50;;
18435;SDS011;9346;52.006;4.720;2024-02-28T06:09:57;24.53;;;13.90;;
18435;SDS011;9346;52.006;4.720;2024-02-28T06:12:24;26.93;;;14.83;;
18435;SDS011;9346;52.006;4.720;2024-02-28T06:14:51;29.70;;;14.13;;
18435;SDS011;9346;52.006;4.720;2024-02-28T06:17:18;26.27;;;15.03;;
18435;SDS011;9346;52.006;4.720;2024-02-28T06:19:46;22.63;;;13.80;;
18435;SDS011;9346;52.006;4.720;2024-02-28T06:22:12;23.37;;;14.63;;
18435;SDS011;9346;52.006;4.720;2024-02-28T06:24:41;24.77;;;14.77;;
18435;SDS011;9346;52.006;4.720;2024-02-28T06:27:08;21.97;;;13.93;;
18435;SDS011;9346;52.006;4.720;2024-02-28T06:29:37;23.10;;;13.73;;
18435;SDS011;9346;52.006;4.720;2024-02-28T06:32:05;21.83;;;13.63;;
18435;SDS011;9346;52.006;4.720;2024-02-28T06:34:32;25.27;;;13.93;;
18435;SDS011;9346;52.006;4.720;2024-02-28T06:36:58;25.93;;;14.63;;
18435;SDS011;9346;52.006;4.720;2024-02-28T06:39:25;31.97;;;15.40;;
18435;SDS011;9346;52.006;4.720;2024-02-28T06:41:53;23.70;;;13.70;;
18435;SDS011;9346;52.006;4.720;2024-02-28T06:44:20;25.80;;;14.97;;
18435;SDS011;9346;52.006;4.720;2024-02-28T06:46:46;28.27;;;15.33;;
18435;SDS011;9346;52.006;4.720;2024-02-28T06:49:13;24.43;;;15.10;;
18435;SDS011;9346;52.006;4.720;2024-02-28T06:51:39;30.37;;;15.13;;
18435;SDS011;9346;52.006;4.720;2024-02-28T06:54:06;29.83;;;14.53;;
18435;SDS011;9346;52.006;4.720;2024-02-28T06:56:33;25.67;;;15.57;;
18435;SDS011;9346;52.006;4.720;2024-02-28T06:59:01;27.80;;;15.77;;
18435;SDS011;9346;52.006;4.720;2024-02-28T07:01:28;24.10;;;14.90;;
18435;SDS011;9346;52.006;4.720;2024-02-28T07:03:55;25.00;;;14.93;;
18435;SDS011;9346;52.006;4.720;2024-02-28T07:06:22;26.90;;;14.87;;
18435;SDS011;9346;52.006;4.720;2024-02-28T07:08:49;27.00;;;14.73;;
18435;SDS011;9346;52.006;4.720;2024-02-28T07:11:15;32.87;;;16.23;;
18435;SDS011;9346;52.006;4.720;2024-02-28T07:13:42;23.63;;;14.60;;
18435;SDS011;9346;52.006;4.720;2024-02-28T07:16:10;25.60;;;15.83;;
18435;SDS011;9346;52.006;4.720;2024-02-28T07:18:37;23.23;;;14.80;;
18435;SDS011;9346;52.006;4.720;2024-02-28T07:21:04;31.33;;;15.33;;
18435;SDS011;9346;52.006;4.720;2024-02-28T07:23:31;29.97;;;15.47;;
18435;SDS011;9346;52.006;4.720;2024-02-28T07:25:58;24.10;;;14.87;;
18435;SDS011;9346;52.006;4.720;2024-02-28T07:28:25;20.93;;;14.13;;
18435;SDS011;9346;52.006;4.720;2024-02-28T07:30:52;23.47;;;15.30;;
18435;SDS011;9346;52.006;4.720;2024-02-28T07:33:20;28.30;;;14.57;;
18435;SDS011;9346;52.006;4.720;2024-02-28T07:35:47;25.10;;;15.50;;
18435;SDS011;9346;52.006;4.720;2024-02-28T07:38:14;27.00;;;15.50;;
18435;SDS011;9346;52.006;4.720;2024-02-28T07:40:42;25.17;;;15.17;;
18435;SDS011;9346;52.006;4.720;2024-02-28T07:43:09;26.10;;;15.67;;
18435;SDS011;9346;52.006;4.720;2024-02-28T07:45:35;38.27;;;16.57;;
18435;SDS011;9346;52.006;4.720;2024-02-28T07:48:02;29.43;;;15.50;;
18435;SDS011;9346;52.006;4.720;2024-02-28T07:50:32;33.83;;;15.97;;
18435;SDS011;9346;52.006;4.720;2024-02-28T07:52:59;26.70;;;15.63;;
18435;SDS011;9346;52.006;4.720;2024-02-28T07:55:26;28.83;;;16.87;;
18435;SDS011;9346;52.006;4.720;2024-02-28T07:57:53;28.23;;;14.97;;
18435;SDS011;9346;52.006;4.720;2024-02-28T08:00:20;28.67;;;16.07;;
18435;SDS011;9346;52.006;4.720;2024-02-28T08:02:47;24.60;;;14.87;;
18435;SDS011;9346;52.006;4.720;2024-02-28T08:05:14;23.30;;;14.40;;
18435;SDS011;9346;52.006;4.720;2024-02-28T08:07:42;23.33;;;14.73;;
18435;SDS011;9346;52.006;4.720;2024-02-28T08:10:09;23.97;;;14.27;;
18435;SDS011;9346;52.006;4.720;2024-02-28T08:12:36;29.13;;;15.80;;
18435;SDS011;9346;52.006;4.720;2024-02-28T08:15:03;29.93;;;16.37;;
18435;SDS011;9346;52.006;4.720;2024-02-28T08:17:31;23.47;;;14.43;;
18435;SDS011;9346;52.006;4.720;2024-02-28T08:19:57;31.30;;;15.10;;
18435;SDS011;9346;52.006;4.720;2024-02-28T08:22:24;29.00;;;16.87;;
18435;SDS011;9346;52.006;4.720;2024-02-28T08:24:53;31.17;;;15.67;;
18435;SDS011;9346;52.006;4.720;2024-02-28T08:27:20;29.37;;;16.30;;
18435;SDS011;9346;52.006;4.720;2024-02-28T08:29:48;28.37;;;16.13;;
18435;SDS011;9346;52.006;4.720;2024-02-28T08:32:15;28.70;;;15.60;;
18435;SDS011;9346;52.006;4.720;2024-02-28T08:34:43;28.73;;;15.40;;
18435;SDS011;9346;52.006;4.720;2024-02-28T08:37:10;26.10;;;15.00;;
18435;SDS011;9346;52.006;4.720;2024-02-28T08:39:37;32.33;;;17.23;;
18435;SDS011;9346;52.006;4.720;2024-02-28T08:42:05;29.30;;;15.13;;
18435;SDS011;9346;52.006;4.720;2024-02-28T08:44:32;29.67;;;16.87;;
18435;SDS011;9346;52.006;4.720;2024-02-28T08:46:59;29.13;;;17.47;;
18435;SDS011;9346;52.006;4.720;2024-02-28T08:49:26;25.77;;;15.27;;
18435;SDS011;9346;52.006;4.720;2024-02-28T08:51:53;29.60;;;16.23;;
18435;SDS011;9346;52.006;4.720;2024-02-28T08:54:19;30.23;;;15.60;;
18435;SDS011;9346;52.006;4.720;2024-02-28T08:56:46;26.10;;;15.93;;
18435;SDS011;9346;52.006;4.720;2024-02-28T08:59:14;28.07;;;16.37;;
18435;SDS011;9346;52.006;4.720;2024-02-28T09:01:41;28.83;;;16.60;;
18435;SDS011;9346;52.006;4.720;2024-02-28T09:04:08;32.57;;;15.70;;
18435;SDS011;9346;52.006;4.720;2024-02-28T09:06:35;31.73;;;16.03;;
18435;SDS011;9346;52.006;4.720;2024-02-28T09:09:02;30.17;;;15.93;;
18435;SDS011;9346;52.006;4.720;2024-02-28T09:11:29;32.47;;;17.60;;
18435;SDS011;9346;52.006;4.720;2024-02-28T09:13:55;27.93;;;16.00;;
18435;SDS011;9346;52.006;4.720;2024-02-28T09:16:23;36.10;;;17.53;;
18435;SDS011;9346;52.006;4.720;2024-02-28T09:18:50;31.33;;;16.20;;
18435;SDS011;9346;52.006;4.720;2024-02-28T09:21:16;26.30;;;16.30;;
18435;SDS011;9346;52.006;4.720;2024-02-28T09:23:43;29.73;;;16.43;;
18435;SDS011;9346;52.006;4.720;2024-02-28T09:26:10;24.73;;;16.03;;
18435;SDS011;9346;52.006;4.720;2024-02-28T09:28:37;27.07;;;16.23;;
18435;SDS011;9346;52.006;4.720;2024-02-28T09:31:04;29.53;;;16.30;;
18435;SDS011;9346;52.006;4.720;2024-02-28T09:33:36;31.07;;;16.10;;
18435;SDS011;9346;52.006;4.720;2024-02-28T09:36:03;30.13;;;17.40;;
18435;SDS011;9346;52.006;4.720;2024-02-28T09:38:30;29.87;;;16.77;;
18435;SDS011;9346;52.006;4.720;2024-02-28T09:40:57;33.00;;;17.10;;
18435;SDS011;9346;52.006;4.720;2024-02-28T09:43:25;27.80;;;16.83;;
18435;SDS011;9346;52.006;4.720;2024-02-28T09:45:56;29.30;;;16.97;;
18435;SDS011;9346;52.006;4.720;2024-02-28T09:48:25;30.13;;;16.97;;
18435;SDS011;9346;52.006;4.720;2024-02-28T09:50:55;25.83;;;15.80;;
18435;SDS011;9346;52.006;4.720;2024-02-28T09:53:23;32.40;;;17.73;;
18435;SDS011;9346;52.006;4.720;2024-02-28T09:55:50;30.23;;;17.50;;
18435;SDS011;9346;52.006;4.720;2024-02-28T09:58:16;26.97;;;16.00;;
18435;SDS011;9346;52.006;4.720;2024-02-28T10:00:44;34.83;;;18.80;;
18435;SDS011;9346;52.006;4.720;2024-02-28T10:03:13;32.43;;;17.53;;
18435;SDS011;9346;52.006;4.720;2024-02-28T10:05:42;30.33;;;17.20;;
18435;SDS011;9346;52.006;4.720;2024-02-28T10:08:12;32.47;;;18.50;;
18435;SDS011;9346;52.006;4.720;2024-02-28T10:10:44;32.47;;;16.77;;
18435;SDS011;9346;52.006;4.720;2024-02-28T10:13:11;32.30;;;17.97;;
18435;SDS011;9346;52.006;4.720;2024-02-28T10:15:38;33.70;;;16.83;;
18435;SDS011;9346;52.006;4.720;2024-02-28T10:18:05;31.67;;;16.90;;
18435;SDS011;9346;52.006;4.720;2024-02-28T10:20:32;30.20;;;16.90;;
18435;SDS011;9346;52.006;4.720;2024-02-28T10:22:58;30.97;;;17.17;;
18435;SDS011;9346;52.006;4.720;2024-02-28T10:25:26;40.57;;;17.77;;
18435;SDS011;9346;52.006;4.720;2024-02-28T10:27:58;31.17;;;15.93;;
18435;SDS011;9346;52.006;4.720;2024-02-28T10:30:25;25.97;;;16.87;;
18435;SDS011;9346;52.006;4.720;2024-02-28T10:32:52;30.53;;;16.13;;
18435;SDS011;9346;52.006;4.720;2024-02-28T10:35:19;28.13;;;16.53;;
18435;SDS011;9346;52.006;4.720;2024-02-28T10:37:50;37.37;;;16.30;;
18435;SDS011;9346;52.006;4.720;2024-02-28T10:40:17;30.40;;;16.43;;
18435;SDS011;9346;52.006;4.720;2024-02-28T10:42:47;28.13;;;16.97;;
18435;SDS011;9346;52.006;4.720;2024-02-28T10:45:15;27.87;;;16.73;;
18435;SDS011;9346;52.006;4.720;2024-02-28T10:47:43;26.20;;;16.30;;
18435;SDS011;9346;52.006;4.720;2024-02-28T10:50:12;30.80;;;15.70;;
18435;SDS011;9346;52.006;4.720;2024-02-28T10:52:42;29.23;;;14.70;;
18435;SDS011;9346;52.006;4.720;2024-02-28T10:55:12;23.80;;;15.23;;
18435;SDS011;9346;52.006;4.720;2024-02-28T10:57:42;32.20;;;14.93;;
18435;SDS011;9346;52.006;4.720;2024-02-28T11:00:14;22.07;;;14.40;;
18435;SDS011;9346;52.006;4.720;2024-02-28T11:02:43;22.97;;;13.97;;
18435;SDS011;9346;52.006;4.720;2024-02-28T11:05:09;22.80;;;13.57;;
18435;SDS011;9346;52.006;4.720;2024-02-28T11:07:40;27.07;;;13.83;;
18435;SDS011;9346;52.006;4.720;2024-02-28T11:10:08;25.13;;;12.53;;
18435;SDS011;9346;52.006;4.720;2024-02-28T11:12:36;22.30;;;12.27;;
18435;SDS011;9346;52.006;4.720;2024-02-28T11:15:04;25.77;;;13.23;;
18435;SDS011;9346;52.006;4.720;2024-02-28T11:17:33;18.30;;;12.20;;
18435;SDS011;9346;52.006;4.720;2024-02-28T11:20:00;22.43;;;12.90;;
18435;SDS011;9346;52.006;4.720;2024-02-28T11:22:37;24.10;;;13.67;;
18435;SDS011;9346;52.006;4.720;2024-02-28T11:25:05;23.17;;;13.00;;
18435;SDS011;9346;52.006;4.720;2024-02-28T11:27:32;23.43;;;13.47;;
18435;SDS011;9346;52.006;4.720;2024-02-28T11:29:59;17.97;;;12.73;;
18435;SDS011;9346;52.006;4.720;2024-02-28T11:32:26;20.20;;;10.67;;
18435;SDS011;9346;52.006;4.720;2024-02-28T11:34:58;15.23;;;10.53;;
18435;SDS011;9346;52.006;4.720;2024-02-28T11:37:26;14.07;;;9.60;;
18435;SDS011;9346;52.006;4.720;2024-02-28T11:39:54;18.07;;;11.10;;
18435;SDS011;9346;52.006;4.720;2024-02-28T11:42:21;16.13;;;10.47;;
18435;SDS011;9346;52.006;4.720;2024-02-28T11:44:52;19.83;;;11.97;;
18435;SDS011;9346;52.006;4.720;2024-02-28T11:47:19;17.30;;;10.87;;
18435;SDS011;9346;52.006;4.720;2024-02-28T11:49:46;18.20;;;11.30;;
18435;SDS011;9346;52.006;4.720;2024-02-28T11:52:15;21.80;;;12.70;;
18435;SDS011;9346;52.006;4.720;2024-02-28T11:54:41;18.17;;;11.10;;
18435;SDS011;9346;52.006;4.720;2024-02-28T11:57:08;19.27;;;11.70;;
18435;SDS011;9346;52.006;4.720;2024-02-28T11:59:39;23.70;;;12.67;;
18435;SDS011;9346;52.006;4.720;2024-02-28T12:02:11;17.53;;;11.53;;
18435;SDS011;9346;52.006;4.720;2024-02-28T12:04:39;21.37;;;12.23;;
18435;SDS011;9346;52.006;4.720;2024-02-28T12:07:06;24.23;;;12.60;;
18435;SDS011;9346;52.006;4.720;2024-02-28T12:09:35;18.50;;;12.77;;
18435;SDS011;9346;52.006;4.720;2024-02-28T12:12:03;27.10;;;15.10;;
18435;SDS011;9346;52.006;4.720;2024-02-28T12:14:36;25.87;;;14.33;;
18435;SDS011;9346;52.006;4.720;2024-02-28T12:17:03;26.87;;;14.20;;
18435;SDS011;9346;52.006;4.720;2024-02-28T12:19:30;24.87;;;14.63;;
18435;SDS011;9346;52.006;4.720;2024-02-28T12:21:57;25.77;;;14.43;;
18435;SDS011;9346;52.006;4.720;2024-02-28T12:24:24;24.37;;;14.83;;
18435;SDS011;9346;52.006;4.720;2024-02-28T12:26:53;29.67;;;15.43;;
18435;SDS011;9346;52.006;4.720;2024-02-28T12:29:20;30.00;;;16.67;;
18435;SDS011;9346;52.006;4.720;2024-02-28T12:31:46;31.40;;;18.80;;
18435;SDS011;9346;52.006;4.720;2024-02-28T12:34:13;26.10;;;16.20;;
18435;SDS011;9346;52.006;4.720;2024-02-28T12:36:40;28.43;;;17.90;;
18435;SDS011;9346;52.006;4.720;2024-02-28T12:39:07;34.13;;;19.17;;
18435;SDS011;9346;52.006;4.720;2024-02-28T12:41:36;30.27;;;19.10;;
18435;SDS011;9346;52.006;4.720;2024-02-28T12:44:05;34.20;;;20.63;;
18435;SDS011;9346;52.006;4.720;2024-02-28T12:46:32;36.27;;;20.33;;
18435;SDS011;9346;52.006;4.720;2024-02-28T12:48:59;35.77;;;20.80;;
18435;SDS011;9346;52.006;4.720;2024-02-28T12:51:36;37.73;;;19.57;;
18435;SDS011;9346;52.006;4.720;2024-02-28T12:54:04;37.60;;;20.87;;
18435;SDS011;9346;52.006;4.720;2024-02-28T12:56:31;40.50;;;20.53;;
18435;SDS011;9346;52.006;4.720;2024-02-28T12:58:57;38.70;;;20.80;;
18435;SDS011;9346;52.006;4.720;2024-02-28T13:01:26;34.87;;;20.43;;
18435;SDS011;9346;52.006;4.720;2024-02-28T13:03:53;30.93;;;16.83;;
18435;SDS011;9346;52.006;4.720;2024-02-28T13:06:20;33.63;;;19.40;;
18435;SDS011;9346;52.006;4.720;2024-02-28T13:08:47;36.03;;;18.57;;
18435;SDS011;9346;52.006;4.720;2024-02-28T13:11:17;33.20;;;17.43;;
18435;SDS011;9346;52.006;4.720;2024-02-28T13:13:44;35.93;;;17.57;;
18435;SDS011;9346;52.006;4.720;2024-02-28T13:16:11;33.57;;;16.87;;
18435;SDS011;9346;52.006;4.720;2024-02-28T13:18:39;28.93;;;18.37;;
18435;SDS011;9346;52.006;4.720;2024-02-28T13:21:06;33.80;;;16.87;;
18435;SDS011;9346;52.006;4.720;2024-02-28T13:23:33;31.87;;;18.77;;
18435;SDS011;9346;52.006;4.720;2024-02-28T13:25:59;33.33;;;17.60;;
18435;SDS011;9346;52.006;4.720;2024-02-28T13:28:26;30.33;;;17.60;;
18435;SDS011;9346;52.006;4.720;2024-02-28T13:30:55;32.40;;;16.77;;
18435;SDS011;9346;52.006;4.720;2024-02-28T13:33:22;35.57;;;17.80;;
18435;SDS011;9346;52.006;4.720;2024-02-28T13:35:51;28.20;;;15.20;;
18435;SDS011;9346;52.006;4.720;2024-02-28T13:38:18;25.00;;;14.60;;
18435;SDS011;9346;52.006;4.720;2024-02-28T13:40:45;19.83;;;13.33;;
18435;SDS011;9346;52.006;4.720;2024-02-28T13:43:12;20.63;;;13.23;;
18435;SDS011;9346;52.006;4.720;2024-02-28T13:45:39;24.00;;;14.53;;
18435;SDS011;9346;52.006;4.720;2024-02-28T13:48:14;29.60;;;14.67;;
18435;SDS011;9346;52.006;4.720;2024-02-28T13:50:42;25.13;;;14.20;;
18435;SDS011;9346;52.006;4.720;2024-02-28T13:53:10;22.97;;;14.03;;
18435;SDS011;9346;52.006;4.720;2024-02-28T13:55:38;24.23;;;13.60;;
18435;SDS011;9346;52.006;4.720;2024-02-28T13:58:04;22.07;;;12.67;;
18435;SDS011;9346;52.006;4.720;2024-02-28T14:00:31;27.57;;;13.40;;
18435;SDS011;9346;52.006;4.720;2024-02-28T14:02:59;21.90;;;12.60;;
18435;SDS011;9346;52.006;4.720;2024-02-28T14:05:26;20.83;;;12.57;;
18435;SDS011;9346;52.006;4.720;2024-02-28T14:07:52;22.33;;;13.87;;
18435;SDS011;9346;52.006;4.720;2024-02-28T14:10:20;23.97;;;11.97;;
18435;SDS011;9346;52.006;4.720;2024-02-28T14:12:48;24.53;;;14.13;;
18435;SDS011;9346;52.006;4.720;2024-02-28T14:15:17;20.43;;;14.00;;
18435;SDS011;9346;52.006;4.720;2024-02-28T14:17:44;25.93;;;14.63;;
18435;SDS011;9346;52.006;4.720;2024-02-28T14:20:11;28.87;;;14.90;;
18435;SDS011;9346;52.006;4.720;2024-02-28T14:22:38;25.63;;;15.13;;
18435;SDS011;9346;52.006;4.720;2024-02-28T14:25:07;27.00;;;15.10;;
18435;SDS011;9346;52.006;4.720;2024-02-28T14:27:38;30.60;;;15.93;;
18435;SDS011;9346;52.006;4.720;2024-02-28T14:30:08;27.20;;;16.43;;
18435;SDS011;9346;52.006;4.720;2024-02-28T14:32:35;31.07;;;15.63;;
18435;SDS011;9346;52.006;4.720;2024-02-28T14:35:02;30.70;;;16.17;;
18435;SDS011;9346;52.006;4.720;2024-02-28T14:37:29;32.70;;;16.77;;
18435;SDS011;9346;52.006;4.720;2024-02-28T14:39:56;27.63;;;14.87;;
18435;SDS011;9346;52.006;4.720;2024-02-28T14:42:23;41.77;;;14.50;;